Reading Regional Carl A Spaatz Field Reading US
ICAO: KRDG
IATA: RDG
Category: Medium
Scheduled Services: Yes

Elevation: 344 ft
TransAlt. 18000 ft.

Airport Communications:
APP/DEP:125.15
ATIS:127.1
CTAF:119.9
GND:121.9
TWR:119.9
UNICOM:122.95

KRDG Zoom In..

If you have problems with the map follow the link
https://www.worldairports.se/pages/airport.php?
ICAO=KRDG

Runways:

(A) RW 13 length 6350 ft width 150 ft
ILS 110.55 / hdg 133

(B) RW 18 length 5151 ft width 150 ft
---- / hdg 184

(C) RW 31 length 6350 ft width 150 ft
---- / hdg 313

(D) RW 36 length 5151 ft width 150 ft
ILS 109.50 / hdg 4

Location; KRDG
Day. 29 / Time. 10.54 Zulu
* Altimeter: 30.03
* Temperature: 02° c. 35.6°f.
* Wind from: 320° Speed 13 kn.
Dewpoint: -06° c.
Visibility: 10 Statute Miles.
Clouds: Overcast 4100 ft.

KRDG 291054Z 32013KT 10SM OVC041 02/M06 A3003 RMK AO2 SLP177 T00171061


Wind From 320°
Speed 13 kn.

 
 
jpsmedia worldairports.se 2020   terms of use